CheckWX is a tool to help pilots better visualize weather data.  It is not intended as a substitute for an official pre-flight weather briefing.

20:36:33 UTC

KUES TAF
Waukesha County Airport
Waukesha, Wisconsin, USA
KUES 222020Z 2220/2318 36011G17KT P6SM FEW035 FM222200 01009KT P6SM SKC FM231600 23006KT P6SM SKC

Mar-22@
20:00 UTC

Mar-22 @ 20:00 UTC

Mar-22@
22:00 UTC

Mar-22 @ 22:00 UTC

KUES 222020Z 2220/2318 36011G17KT P6SM FEW035
Wind
  • 360° at 11 KTS
  • {Gusting to 17 KTS
Cloud Levels
  • Few at 3,500' AGL

Mar-22@
22:00 UTC

Mar-22 @ 22:00 UTC

Mar-23@
16:00 UTC

Mar-23 @ 16:00 UTC

FM222200 01009KT P6SM SKC

From

From Standard forecast or significant change

Wind
  • 010° at 9 KTS
Cloud Levels
  • Clear skies

Mar-23@
16:00 UTC

Mar-23 @ 16:00 UTC

Mar-23@
18:00 UTC

Mar-23 @ 18:00 UTC

FM231600 23006KT P6SM SKC

From

From Standard forecast or significant change

Wind
  • 230° at 6 KTS
Cloud Levels
  • Clear skies